Time;durP1;ratioP1;P1;durP2;ratioP2;P2;SDS_P1;SDS_P2;PMS_P1;PMS_P2;Temp;Humidity;BMP_temperature;BMP_pressure;BME280_temperature;BME280_humidity;BME280_pressure;Samples;Min_cycle;Max_cycle;Signal;HPM_P1;HPM_P2
2021/12/25 00:02:19;;;;;;;5.97;5.10;;;;;;;;;;5031926;28;20442;-48
2021/12/25 00:04:47;;;;;;;4.90;3.60;;;;;;;;;;5041560;28;21027;-48
2021/12/25 00:07:13;;;;;;;5.53;4.33;;;;;;;;;;5005223;28;20443;-47
2021/12/25 00:09:39;;;;;;;6.27;5.00;;;;;;;;;;5043208;28;20438;-48
2021/12/25 00:12:05;;;;;;;7.63;5.13;;;;;;;;;;5007203;28;20454;-48
2021/12/25 00:14:31;;;;;;;5.23;4.10;;;;;;;;;;5031455;28;20520;-49
2021/12/25 00:16:58;;;;;;;6.00;4.63;;;;;;;;;;5013808;28;20454;-48
2021/12/25 00:19:33;;;;;;;4.67;3.30;;;;;;;;;;5043960;28;20435;-50
2021/12/25 00:22:00;;;;;;;7.20;3.63;;;;;;;;;;5033270;28;20988;-50
2021/12/25 00:24:26;;;;;;;6.17;3.93;;;;;;;;;;5045995;28;20438;-49
2021/12/25 00:27:06;;;;;;;4.50;3.60;;;;;;;;;;5017980;28;20434;-47
2021/12/25 00:35:07;;;;;;;7.33;4.37;;;;;;;;;;5044233;28;20438;-51
2021/12/25 00:37:42;;;;;;;3.67;3.33;;;;;;;;;;5041347;28;20450;-50
2021/12/25 00:40:08;;;;;;;6.10;4.33;;;;;;;;;;5036514;28;21129;-48
2021/12/25 00:42:34;;;;;;;5.07;4.03;;;;;;;;;;5032050;28;20431;-49
2021/12/25 00:45:00;;;;;;;7.27;4.20;;;;;;;;;;5051848;28;20507;-49
2021/12/25 00:47:26;;;;;;;8.27;4.10;;;;;;;;;;5043203;28;20441;-50
2021/12/25 00:50:04;;;;;;;11.10;5.17;;;;;;;;;;5046702;28;20820;-50
2021/12/25 00:52:39;;;;;;;5.80;4.50;;;;;;;;;;5047864;28;20438;-50
2021/12/25 00:55:07;;;;;;;6.53;4.20;;;;;;;;;;5049552;28;20447;-50
2021/12/25 00:57:33;;;;;;;7.23;4.40;;;;;;;;;;5043871;28;20441;-50
2021/12/25 01:00:19;;;;;;;11.77;6.43;;;;;;;;;;5047193;28;20477;-50
2021/12/25 01:02:47;;;;;;;5.40;4.30;;;;;;;;;;5040227;28;20445;-50
2021/12/25 01:05:14;;;;;;;6.23;4.43;;;;;;;;;;5052610;28;20568;-50
2021/12/25 01:07:40;;;;;;;4.60;4.00;;;;;;;;;;5007823;28;20482;-49
2021/12/25 01:10:09;;;;;;;6.30;4.10;;;;;;;;;;5059109;28;20458;-49
2021/12/25 01:13:12;;;;;;;6.37;4.90;;;;;;;;;;5030153;28;20434;-49
2021/12/25 01:18:50;;;;;;;5.20;3.90;;;;;;;;;;5047037;28;20441;-48
2021/12/25 01:21:15;;;;;;;9.57;4.40;;;;;;;;;;5047706;28;20524;-49
2021/12/25 01:29:22;;;;;;;5.70;3.80;;;;;;;;;;5047828;28;20450;-49
2021/12/25 01:48:17;;;;;;;6.83;3.37;;;;;;;;;;5044224;28;20441;-50
2021/12/25 01:50:43;;;;;;;5.13;3.03;;;;;;;;;;5018781;28;20435;-50
2021/12/25 01:53:09;;;;;;;4.20;3.23;;;;;;;;;;5050943;28;20461;-49
2021/12/25 01:55:35;;;;;;;10.53;4.60;;;;;;;;;;5046888;28;20799;-48
2021/12/25 01:58:02;;;;;;;5.07;4.00;;;;;;;;;;5043621;28;20471;-49
2021/12/25 02:00:28;;;;;;;7.07;3.83;;;;;;;;;;5026281;28;20484;-50
2021/12/25 02:02:54;;;;;;;7.17;4.33;;;;;;;;;;5024721;28;20438;-48
2021/12/25 02:05:21;;;;;;;6.63;3.90;;;;;;;;;;5047630;28;20465;-48
2021/12/25 02:07:47;;;;;;;5.13;3.90;;;;;;;;;;5024883;28;20971;-48
2021/12/25 02:10:13;;;;;;;7.53;4.30;;;;;;;;;;5050830;28;20438;-50
2021/12/25 02:12:40;;;;;;;4.50;3.77;;;;;;;;;;5006089;28;20881;-48
2021/12/25 02:15:10;;;;;;;5.47;4.47;;;;;;;;;;5061984;28;20546;-48
2021/12/25 02:18:26;;;;;;;4.63;3.77;;;;;;;;;;5057813;28;20430;-49
2021/12/25 02:20:29;;;;;;;5.80;4.30;;;;;;;;;;5057653;28;20527;-49
2021/12/25 02:23:00;;;;;;;6.80;4.53;;;;;;;;;;5058035;28;20437;-51
2021/12/25 02:25:27;;;;;;;5.60;4.20;;;;;;;;;;5032225;28;20437;-48
2021/12/25 02:27:53;;;;;;;4.27;3.80;;;;;;;;;;5011900;28;20474;-48
2021/12/25 02:30:19;;;;;;;5.27;4.30;;;;;;;;;;5045561;28;20500;-49
2021/12/25 02:32:46;;;;;;;6.40;4.47;;;;;;;;;;5030222;28;20422;-54
2021/12/25 02:35:13;;;;;;;6.63;4.70;;;;;;;;;;5044694;28;22454;-50
2021/12/25 02:37:40;;;;;;;10.63;5.10;;;;;;;;;;5031225;28;20438;-49
2021/12/25 02:40:06;;;;;;;6.43;4.10;;;;;;;;;;5048479;28;20502;-49
2021/12/25 02:42:34;;;;;;;7.47;4.10;;;;;;;;;;5023907;28;20966;-49
2021/12/25 02:45:00;;;;;;;6.00;4.47;;;;;;;;;;5044021;28;20446;-49
2021/12/25 02:47:31;;;;;;;7.40;4.27;;;;;;;;;;5008516;28;20745;-50
2021/12/25 02:49:57;;;;;;;7.80;4.93;;;;;;;;;;5047430;28;20526;-49
2021/12/25 02:52:23;;;;;;;7.83;4.97;;;;;;;;;;5020314;28;20641;-48
2021/12/25 02:54:49;;;;;;;6.10;4.57;;;;;;;;;;5045706;28;20449;-48
2021/12/25 02:57:15;;;;;;;8.27;4.87;;;;;;;;;;5042474;28;20861;-49
2021/12/25 02:59:42;;;;;;;6.30;4.40;;;;;;;;;;5030534;28;20457;-49
2021/12/25 03:02:18;;;;;;;6.03;5.20;;;;;;;;;;5044758;28;20465;-49
2021/12/25 03:04:45;;;;;;;6.20;5.20;;;;;;;;;;5046814;28;20444;-50
2021/12/25 03:07:14;;;;;;;10.07;5.10;;;;;;;;;;5047453;28;20790;-51
2021/12/25 03:09:41;;;;;;;7.67;5.70;;;;;;;;;;5047691;28;20940;-50
2021/12/25 03:12:31;;;;;;;7.73;6.40;;;;;;;;;;5026601;28;20466;-49
2021/12/25 03:15:13;;;;;;;7.27;4.73;;;;;;;;;;5032928;28;20423;-49
2021/12/25 03:17:39;;;;;;;6.30;4.77;;;;;;;;;;5020025;28;20977;-48
2021/12/25 03:20:06;;;;;;;11.07;5.53;;;;;;;;;;5030891;28;20837;-48
2021/12/25 03:22:41;;;;;;;9.30;5.10;;;;;;;;;;5040490;28;20802;-50
2021/12/25 03:25:14;;;;;;;6.37;5.17;;;;;;;;;;5038298;28;20443;-48
2021/12/25 03:27:42;;;;;;;5.33;4.60;;;;;;;;;;5042466;28;20774;-49
2021/12/25 03:30:08;;;;;;;7.10;4.30;;;;;;;;;;5046271;28;20569;-48
2021/12/25 03:32:55;;;;;;;5.80;4.00;;;;;;;;;;5036188;28;20524;-49
2021/12/25 03:35:24;;;;;;;6.07;4.47;;;;;;;;;;5045987;28;20568;-48
2021/12/25 03:38:07;;;;;;;5.57;4.10;;;;;;;;;;5036522;28;21082;-49
2021/12/25 03:40:35;;;;;;;5.30;3.97;;;;;;;;;;5046213;28;20482;-49
2021/12/25 03:43:12;;;;;;;6.60;3.23;;;;;;;;;;5028941;28;21010;-48
2021/12/25 03:45:42;;;;;;;12.03;3.50;;;;;;;;;;5048727;28;20435;-48
2021/12/25 03:59:03;;;;;;;3.73;3.30;;;;;;;;;;5043897;28;20456;-50
2021/12/25 04:01:57;;;;;;;3.70;2.97;;;;;;;;;;5047963;28;20513;-50
2021/12/25 04:04:35;;;;;;;3.90;3.07;;;;;;;;;;5021898;28;20518;-49
2021/12/25 04:07:11;;;;;;;3.63;2.53;;;;;;;;;;5048668;28;20429;-50
2021/12/25 04:09:39;;;;;;;3.27;2.27;;;;;;;;;;5038944;28;20446;-48
2021/12/25 04:12:07;;;;;;;4.20;3.10;;;;;;;;;;5040867;28;20976;-50
2021/12/25 04:14:34;;;;;;;3.10;2.57;;;;;;;;;;5023121;28;20482;-50
2021/12/25 04:17:00;;;;;;;2.60;2.40;;;;;;;;;;5042638;28;20779;-50
2021/12/25 04:19:26;;;;;;;2.50;1.97;;;;;;;;;;5023625;28;20454;-50
2021/12/25 04:24:18;;;;;;;3.20;2.20;;;;;;;;;;5020872;28;21002;-49
2021/12/25 04:26:46;;;;;;;3.33;2.90;;;;;;;;;;5049000;28;20521;-49
2021/12/25 04:47:54;;;;;;;3.33;2.17;;;;;;;;;;5029018;28;21353;-50
2021/12/25 05:02:46;;;;;;;5.33;2.30;;;;;;;;;;5048385;28;20906;-49
2021/12/25 05:05:16;;;;;;;4.87;2.33;;;;;;;;;;5033088;28;20500;-50
2021/12/25 05:07:42;;;;;;;3.53;1.90;;;;;;;;;;5053648;28;20462;-50
2021/12/25 05:10:10;;;;;;;4.03;2.03;;;;;;;;;;5030644;28;20609;-50
2021/12/25 05:12:36;;;;;;;3.20;2.27;;;;;;;;;;5063612;28;20499;-49
2021/12/25 05:15:03;;;;;;;2.03;1.83;;;;;;;;;;5026653;28;20533;-50
2021/12/25 05:17:29;;;;;;;3.80;2.20;;;;;;;;;;5046634;28;20962;-50
2021/12/25 05:19:56;;;;;;;2.90;2.03;;;;;;;;;;5026597;28;20430;-50
2021/12/25 05:22:28;;;;;;;4.93;2.57;;;;;;;;;;5028337;28;21345;-51
2021/12/25 05:24:56;;;;;;;3.17;2.27;;;;;;;;;;5046519;28;20438;-50
2021/12/25 05:27:29;;;;;;;2.60;1.80;;;;;;;;;;5010735;28;20638;-50
2021/12/25 05:29:55;;;;;;;2.77;2.50;;;;;;;;;;5048020;28;20446;-50
2021/12/25 05:32:27;;;;;;;3.20;2.40;;;;;;;;;;5024245;28;20458;-50
2021/12/25 05:34:58;;;;;;;3.90;3.13;;;;;;;;;;5044664;28;20521;-49
2021/12/25 05:37:24;;;;;;;4.10;2.60;;;;;;;;;;5030762;28;20924;-50
2021/12/25 05:39:51;;;;;;;2.87;2.10;;;;;;;;;;5047582;28;20531;-50
2021/12/25 05:42:18;;;;;;;3.23;2.40;;;;;;;;;;5041817;28;20447;-51
2021/12/25 05:44:44;;;;;;;4.30;2.70;;;;;;;;;;5048859;28;20640;-50
2021/12/25 05:47:11;;;;;;;3.90;3.03;;;;;;;;;;5021236;28;20439;-50
2021/12/25 05:49:37;;;;;;;3.80;2.77;;;;;;;;;;5055052;28;20435;-50
2021/12/25 05:52:03;;;;;;;3.50;2.80;;;;;;;;;;5049813;28;20431;-50
2021/12/25 05:54:29;;;;;;;3.47;3.00;;;;;;;;;;5037952;28;20438;-49
2021/12/25 05:56:55;;;;;;;5.10;3.60;;;;;;;;;;5044954;28;20446;-50
2021/12/25 05:59:21;;;;;;;4.00;3.27;;;;;;;;;;5025383;28;20725;-50
2021/12/25 06:01:47;;;;;;;4.40;3.23;;;;;;;;;;5045942;28;21106;-50
2021/12/25 06:04:14;;;;;;;4.40;3.47;;;;;;;;;;5027404;28;20477;-50
2021/12/25 06:06:40;;;;;;;5.07;3.03;;;;;;;;;;5047081;28;20431;-50
2021/12/25 06:09:07;;;;;;;3.43;2.47;;;;;;;;;;5029976;28;20439;-51
2021/12/25 06:11:38;;;;;;;2.77;2.00;;;;;;;;;;5043621;28;20537;-50
2021/12/25 06:14:17;;;;;;;3.23;2.77;;;;;;;;;;5022185;28;20948;-50
2021/12/25 06:16:43;;;;;;;3.20;2.30;;;;;;;;;;5046700;28;20441;-50
2021/12/25 06:19:09;;;;;;;4.90;3.00;;;;;;;;;;5043437;28;20563;-50
2021/12/25 06:21:35;;;;;;;4.03;3.30;;;;;;;;;;5047069;28;21002;-50
2021/12/25 06:24:02;;;;;;;3.83;3.40;;;;;;;;;;5027262;28;20449;-50
2021/12/25 06:26:29;;;;;;;10.73;3.53;;;;;;;;;;5049461;28;21040;-50
2021/12/25 06:28:55;;;;;;;3.27;2.93;;;;;;;;;;5044893;28;20435;-50
2021/12/25 06:31:22;;;;;;;3.90;3.23;;;;;;;;;;5051007;28;20816;-50
2021/12/25 06:33:48;;;;;;;5.03;3.37;;;;;;;;;;5004612;28;20454;-50
2021/12/25 06:36:14;;;;;;;5.50;3.80;;;;;;;;;;5049732;28;20445;-50
2021/12/25 06:38:41;;;;;;;6.47;3.90;;;;;;;;;;5037100;28;20458;-50
2021/12/25 06:41:07;;;;;;;4.23;3.80;;;;;;;;;;5052394;28;20470;-50
2021/12/25 06:43:33;;;;;;;7.27;4.30;;;;;;;;;;5040724;28;20478;-49
2021/12/25 06:45:59;;;;;;;4.17;3.30;;;;;;;;;;5049304;28;20431;-49
2021/12/25 06:48:26;;;;;;;6.47;4.00;;;;;;;;;;5044077;28;20433;-48
2021/12/25 06:50:52;;;;;;;5.50;3.83;;;;;;;;;;5035458;28;20435;-50
2021/12/25 06:53:18;;;;;;;5.23;4.03;;;;;;;;;;5062669;28;20426;-49
2021/12/25 06:55:44;;;;;;;4.70;4.17;;;;;;;;;;5027961;28;20574;-49
2021/12/25 06:58:10;;;;;;;5.60;3.60;;;;;;;;;;5045721;28;20857;-49
2021/12/25 07:00:37;;;;;;;4.97;3.70;;;;;;;;;;5048277;28;20484;-48
2021/12/25 07:03:03;;;;;;;4.80;3.70;;;;;;;;;;5046535;28;20829;-49
2021/12/25 07:05:57;;;;;;;5.90;4.40;;;;;;;;;;5058672;28;20461;-50
2021/12/25 07:08:25;;;;;;;8.80;3.43;;;;;;;;;;5049648;28;20434;-48
2021/12/25 07:10:53;;;;;;;4.07;3.57;;;;;;;;;;5048256;28;20434;-49
2021/12/25 07:13:20;;;;;;;4.83;4.33;;;;;;;;;;5063091;28;20789;-49
2021/12/25 07:15:46;;;;;;;8.67;5.83;;;;;;;;;;5024787;28;20766;-49
2021/12/25 07:18:12;;;;;;;7.40;5.00;;;;;;;;;;5049351;28;20483;-50
2021/12/25 07:20:39;;;;;;;6.20;4.10;;;;;;;;;;5030662;28;20524;-50
2021/12/25 07:23:05;;;;;;;7.50;3.80;;;;;;;;;;5051071;28;20427;-49
2021/12/25 07:25:37;;;;;;;11.60;4.50;;;;;;;;;;5024249;28;20442;-50
2021/12/25 07:28:03;;;;;;;8.57;4.13;;;;;;;;;;5050684;28;20447;-50
2021/12/25 07:30:36;;;;;;;5.07;4.50;;;;;;;;;;5034100;28;20434;-49
2021/12/25 07:33:03;;;;;;;5.67;4.93;;;;;;;;;;5047848;28;20864;-49
2021/12/25 07:35:41;;;;;;;7.93;4.60;;;;;;;;;;5009525;28;20478;-49
2021/12/25 07:38:09;;;;;;;6.33;4.33;;;;;;;;;;5044161;28;20450;-49
2021/12/25 07:40:35;;;;;;;4.90;4.10;;;;;;;;;;5050082;28;20494;-49
2021/12/25 07:43:01;;;;;;;5.77;4.07;;;;;;;;;;5047455;28;20439;-50
2021/12/25 07:45:28;;;;;;;3.93;3.37;;;;;;;;;;5040944;28;20477;-50
2021/12/25 07:48:00;;;;;;;4.07;3.67;;;;;;;;;;5043433;28;20579;-50
2021/12/25 07:50:37;;;;;;;5.57;3.57;;;;;;;;;;5028276;28;20441;-50
2021/12/25 07:53:07;;;;;;;4.43;3.60;;;;;;;;;;5045133;28;20862;-49
2021/12/25 07:55:50;;;;;;;5.63;3.47;;;;;;;;;;5023797;28;20766;-50
2021/12/25 07:58:19;;;;;;;5.90;3.83;;;;;;;;;;5039247;28;20802;-49
2021/12/25 08:00:45;;;;;;;5.30;3.50;;;;;;;;;;5041656;28;20698;-49
2021/12/25 08:03:11;;;;;;;3.50;2.90;;;;;;;;;;5042967;28;20434;-49
2021/12/25 08:05:37;;;;;;;4.97;3.10;;;;;;;;;;5022658;28;22451;-49
2021/12/25 08:08:04;;;;;;;5.27;3.00;;;;;;;;;;5048602;28;20430;-50
2021/12/25 08:10:32;;;;;;;4.80;3.23;;;;;;;;;;5010205;28;20532;-50
2021/12/25 08:12:58;;;;;;;4.60;3.60;;;;;;;;;;5038974;28;20472;-50
2021/12/25 08:15:29;;;;;;;4.40;3.33;;;;;;;;;;5027428;28;20706;-49
2021/12/25 08:17:55;;;;;;;3.87;3.13;;;;;;;;;;5042607;28;20449;-49
2021/12/25 08:20:36;;;;;;;4.30;2.97;;;;;;;;;;5034881;28;20485;-50
2021/12/25 08:23:02;;;;;;;4.87;2.97;;;;;;;;;;5044809;28;20521;-48
2021/12/25 08:25:37;;;;;;;4.90;3.40;;;;;;;;;;5020966;28;20446;-51
2021/12/25 08:28:11;;;;;;;4.47;3.40;;;;;;;;;;5027217;28;20438;-49
2021/12/25 08:30:38;;;;;;;4.50;3.30;;;;;;;;;;5004498;28;20923;-49
2021/12/25 08:33:04;;;;;;;4.50;3.67;;;;;;;;;;5027600;28;20533;-49
2021/12/25 08:35:30;;;;;;;4.87;3.30;;;;;;;;;;5007867;28;20454;-50
2021/12/25 08:37:57;;;;;;;4.43;3.47;;;;;;;;;;5040507;28;20470;-50
2021/12/25 08:40:24;;;;;;;3.73;2.97;;;;;;;;;;5028874;28;20451;-51
2021/12/25 08:43:01;;;;;;;3.90;2.70;;;;;;;;;;5039548;28;20446;-50
2021/12/25 08:48:06;;;;;;;6.27;3.37;;;;;;;;;;5034625;28;20445;-51
2021/12/25 08:50:32;;;;;;;9.03;5.97;;;;;;;;;;5043309;28;20457;-49
2021/12/25 08:52:58;;;;;;;9.57;5.83;;;;;;;;;;5023513;28;20531;-49
2021/12/25 08:55:25;;;;;;;13.70;8.63;;;;;;;;;;5043579;28;20438;-48
2021/12/25 08:57:56;;;;;;;12.23;7.50;;;;;;;;;;5019115;28;21455;-50
2021/12/25 09:00:22;;;;;;;3.03;2.73;;;;;;;;;;5046218;28;20458;-49
2021/12/25 09:02:49;;;;;;;4.77;2.70;;;;;;;;;;5021136;28;20481;-49
2021/12/25 09:05:15;;;;;;;5.60;3.43;;;;;;;;;;5047362;28;20498;-50
2021/12/25 09:07:42;;;;;;;4.30;3.00;;;;;;;;;;5040446;28;20828;-52
2021/12/25 09:10:08;;;;;;;2.90;2.33;;;;;;;;;;5043131;28;20426;-49
2021/12/25 09:12:40;;;;;;;5.27;2.63;;;;;;;;;;5038872;28;20426;-50
2021/12/25 09:15:19;;;;;;;3.53;2.33;;;;;;;;;;5005355;28;20511;-50
2021/12/25 09:17:47;;;;;;;2.83;2.17;;;;;;;;;;5042308;28;20899;-49
2021/12/25 09:20:17;;;;;;;3.50;2.30;;;;;;;;;;5034889;28;20442;-50
2021/12/25 09:23:13;;;;;;;2.73;2.03;;;;;;;;;;5016526;28;20858;-50
2021/12/25 09:25:46;;;;;;;4.03;2.30;;;;;;;;;;5021130;28;20563;-50
2021/12/25 09:28:13;;;;;;;3.87;2.00;;;;;;;;;;5017360;28;20971;-49
2021/12/25 09:30:39;;;;;;;2.93;2.27;;;;;;;;;;5043517;28;20423;-49
2021/12/25 09:33:20;;;;;;;2.70;2.17;;;;;;;;;;5005611;28;20442;-51
2021/12/25 09:35:46;;;;;;;3.63;2.40;;;;;;;;;;5041645;28;20442;-48
2021/12/25 09:38:24;;;;;;;4.20;2.23;;;;;;;;;;5034691;28;20492;-49
2021/12/25 09:40:57;;;;;;;2.10;1.90;;;;;;;;;;5043873;28;20975;-49
2021/12/25 09:43:23;;;;;;;2.33;1.60;;;;;;;;;;5022647;28;20481;-48
2021/12/25 09:45:49;;;;;;;3.00;2.20;;;;;;;;;;5044849;28;20462;-49
2021/12/25 09:48:27;;;;;;;3.40;1.90;;;;;;;;;;5030587;28;21482;-50
2021/12/25 09:51:06;;;;;;;2.30;1.40;;;;;;;;;;5036379;28;20843;-49
2021/12/25 09:53:32;;;;;;;2.63;1.70;;;;;;;;;;5043945;28;20469;-49
2021/12/25 09:55:58;;;;;;;2.13;1.50;;;;;;;;;;5037693;28;20530;-49
2021/12/25 09:58:26;;;;;;;3.77;1.43;;;;;;;;;;5043891;28;20465;-50
2021/12/25 10:00:53;;;;;;;2.50;1.90;;;;;;;;;;5039977;28;20560;-49
2021/12/25 10:03:19;;;;;;;3.40;1.47;;;;;;;;;;5048576;28;20450;-49
2021/12/25 10:05:46;;;;;;;1.73;1.40;;;;;;;;;;5019884;28;20431;-50
2021/12/25 10:08:25;;;;;;;1.93;1.57;;;;;;;;;;5044049;28;20418;-50
2021/12/25 10:10:51;;;;;;;2.90;1.83;;;;;;;;;;5037211;28;20466;-48
2021/12/25 10:13:29;;;;;;;5.20;2.60;;;;;;;;;;5045723;28;20422;-50
2021/12/25 10:16:01;;;;;;;6.23;3.63;;;;;;;;;;5019009;28;20562;-49
2021/12/25 10:18:32;;;;;;;8.60;4.30;;;;;;;;;;5028234;28;20449;-48
2021/12/25 10:21:02;;;;;;;4.83;2.63;;;;;;;;;;4986446;28;20485;-49
2021/12/25 10:23:30;;;;;;;4.23;2.07;;;;;;;;;;5040395;28;20917;-50
2021/12/25 10:25:57;;;;;;;3.20;1.47;;;;;;;;;;5047854;28;20447;-50
2021/12/25 10:28:28;;;;;;;2.03;1.20;;;;;;;;;;5043516;28;20785;-49
2021/12/25 10:30:55;;;;;;;1.50;1.13;;;;;;;;;;5037385;28;20518;-50
2021/12/25 10:33:22;;;;;;;2.00;1.40;;;;;;;;;;5046275;28;20943;-49
2021/12/25 10:35:48;;;;;;;5.00;1.40;;;;;;;;;;5026325;28;20979;-49
2021/12/25 10:38:17;;;;;;;1.87;1.10;;;;;;;;;;5041110;28;20455;-50
2021/12/25 10:40:42;;;;;;;2.20;1.20;;;;;;;;;;5026253;28;20466;-48
2021/12/25 10:43:18;;;;;;;1.70;1.20;;;;;;;;;;5046289;28;20496;-48
2021/12/25 10:45:44;;;;;;;1.40;1.10;;;;;;;;;;5031029;28;20544;-49
2021/12/25 10:48:10;;;;;;;2.13;1.17;;;;;;;;;;5041690;28;20510;-48
2021/12/25 10:50:37;;;;;;;1.87;1.10;;;;;;;;;;5023021;28;20447;-48
2021/12/25 10:53:07;;;;;;;1.63;1.00;;;;;;;;;;5040121;28;20431;-48
2021/12/25 10:55:36;;;;;;;2.13;1.20;;;;;;;;;;5007732;28;20455;-50
2021/12/25 10:58:03;;;;;;;1.63;1.10;;;;;;;;;;5041156;28;20473;-50
2021/12/25 11:00:31;;;;;;;1.40;0.90;;;;;;;;;;5029676;28;20628;-49
2021/12/25 11:02:58;;;;;;;1.70;1.17;;;;;;;;;;5036626;28;20441;-49
2021/12/25 11:05:29;;;;;;;3.37;1.50;;;;;;;;;;5046923;28;20431;-48
2021/12/25 11:08:03;;;;;;;1.47;1.10;;;;;;;;;;5021426;28;24385;-49
2021/12/25 11:10:32;;;;;;;2.47;1.33;;;;;;;;;;5038691;28;20438;-49
2021/12/25 11:12:58;;;;;;;2.43;1.30;;;;;;;;;;5036766;28;20849;-48
2021/12/25 11:15:25;;;;;;;1.60;0.80;;;;;;;;;;5027778;28;20483;-49
2021/12/25 11:18:29;;;;;;;1.50;1.00;;;;;;;;;;5039734;28;20435;-50
2021/12/25 11:21:09;;;;;;;1.50;1.00;;;;;;;;;;5038802;28;20600;-49
2021/12/25 11:23:35;;;;;;;2.57;0.90;;;;;;;;;;5013965;28;20572;-49
2021/12/25 11:26:01;;;;;;;1.10;0.80;;;;;;;;;;5039422;28;20450;-49
2021/12/25 11:28:28;;;;;;;2.83;1.30;;;;;;;;;;5010781;28;20442;-48
2021/12/25 11:30:54;;;;;;;1.90;1.23;;;;;;;;;;5040344;28;20442;-50
2021/12/25 11:33:20;;;;;;;2.17;1.27;;;;;;;;;;5035004;28;20801;-48
2021/12/25 11:35:46;;;;;;;1.77;1.50;;;;;;;;;;5038521;28;20476;-49
2021/12/25 11:38:13;;;;;;;1.43;0.93;;;;;;;;;;5021264;28;21017;-49
2021/12/25 11:40:44;;;;;;;1.50;1.03;;;;;;;;;;5043100;28;21030;-49
2021/12/25 11:43:10;;;;;;;2.27;1.30;;;;;;;;;;5020425;28;20446;-50
2021/12/25 11:45:37;;;;;;;4.17;1.20;;;;;;;;;;5044036;28;20430;-50
2021/12/25 11:48:17;;;;;;;1.50;1.10;;;;;;;;;;4996936;28;20437;-50
2021/12/25 11:50:45;;;;;;;1.90;0.90;;;;;;;;;;5039485;28;20513;-49
2021/12/25 11:58:50;;;;;;;2.20;1.23;;;;;;;;;;5015957;28;20438;-49
2021/12/25 12:01:26;;;;;;;2.07;1.00;;;;;;;;;;5041570;28;20469;-49
2021/12/25 12:04:17;;;;;;;1.30;1.20;;;;;;;;;;5027412;28;20494;-49
2021/12/25 12:06:46;;;;;;;2.07;1.00;;;;;;;;;;5033598;28;20424;-49
2021/12/25 12:09:14;;;;;;;2.23;1.10;;;;;;;;;;5040860;28;20419;-50
2021/12/25 12:11:40;;;;;;;1.30;0.80;;;;;;;;;;5040459;28;20436;-50
2021/12/25 12:14:16;;;;;;;2.30;1.30;;;;;;;;;;5007394;28;20454;-50
2021/12/25 12:16:54;;;;;;;2.43;1.20;;;;;;;;;;5056795;28;20439;-49
2021/12/25 12:19:35;;;;;;;2.60;1.37;;;;;;;;;;5027423;28;20970;-50
2021/12/25 12:27:33;;;;;;;2.00;1.40;;;;;;;;;;5044428;28;20473;-48
2021/12/25 12:29:59;;;;;;;1.77;1.40;;;;;;;;;;5024255;28;20419;-49
2021/12/25 12:32:31;;;;;;;2.00;1.43;;;;;;;;;;5037924;28;20489;-48
2021/12/25 12:34:57;;;;;;;2.40;1.80;;;;;;;;;;5029955;28;20434;-48
2021/12/25 12:37:24;;;;;;;2.33;1.63;;;;;;;;;;5037391;28;20423;-49
2021/12/25 12:39:59;;;;;;;1.57;1.20;;;;;;;;;;5038303;28;20287;-49
2021/12/25 12:42:52;;;;;;;2.30;1.43;;;;;;;;;;5046457;28;20980;-50
2021/12/25 12:45:25;;;;;;;1.63;1.10;;;;;;;;;;5025341;28;20463;-49
2021/12/25 12:48:09;;;;;;;3.30;1.50;;;;;;;;;;5046197;28;20523;-48
2021/12/25 12:50:35;;;;;;;1.77;1.20;;;;;;;;;;5029618;28;20442;-48
2021/12/25 12:53:02;;;;;;;2.20;1.63;;;;;;;;;;5044379;28;20426;-49
2021/12/25 12:55:34;;;;;;;1.30;1.07;;;;;;;;;;5025666;28;20847;-49
2021/12/25 12:58:27;;;;;;;1.60;1.20;;;;;;;;;;5046065;28;20445;-48
2021/12/25 13:00:59;;;;;;;1.80;1.37;;;;;;;;;;5046656;28;20506;-50
2021/12/25 13:03:46;;;;;;;4.73;1.40;;;;;;;;;;5035720;28;20433;-50
2021/12/25 13:06:18;;;;;;;1.90;1.37;;;;;;;;;;5062603;28;20427;-50
2021/12/25 13:08:47;;;;;;;2.10;1.50;;;;;;;;;;5041853;28;21492;-50
2021/12/25 13:11:33;;;;;;;1.90;1.20;;;;;;;;;;5054485;28;20444;-51
2021/12/25 13:14:12;;;;;;;1.43;1.30;;;;;;;;;;5038193;28;20438;-50
2021/12/25 13:16:39;;;;;;;2.13;1.10;;;;;;;;;;5046173;28;20485;-50
2021/12/25 13:19:06;;;;;;;1.47;1.20;;;;;;;;;;5035169;28;21855;-50
2021/12/25 13:21:32;;;;;;;2.03;1.40;;;;;;;;;;5045704;28;20555;-48
2021/12/25 13:24:06;;;;;;;2.20;1.80;;;;;;;;;;5034188;28;21074;-50
2021/12/25 13:26:48;;;;;;;2.50;1.50;;;;;;;;;;5028600;28;20453;-50
2021/12/25 13:29:19;;;;;;;2.50;1.90;;;;;;;;;;5042418;28;20439;-50
2021/12/25 13:31:46;;;;;;;2.70;1.87;;;;;;;;;;5038020;28;20492;-49
2021/12/25 13:34:20;;;;;;;2.13;1.93;;;;;;;;;;5040546;28;20993;-48
2021/12/25 13:36:48;;;;;;;4.00;2.47;;;;;;;;;;5013536;28;20489;-49
2021/12/25 13:39:16;;;;;;;2.80;2.40;;;;;;;;;;5047384;28;20481;-50
2021/12/25 13:41:43;;;;;;;5.70;1.93;;;;;;;;;;5040809;28;20507;-48
2021/12/25 13:44:12;;;;;;;2.73;1.90;;;;;;;;;;5047726;28;20518;-48
2021/12/25 13:46:39;;;;;;;3.43;2.03;;;;;;;;;;5026183;28;20802;-47
2021/12/25 13:49:05;;;;;;;3.47;2.40;;;;;;;;;;5046041;28;20442;-48
2021/12/25 13:51:50;;;;;;;3.43;2.23;;;;;;;;;;5025493;28;20454;-50
2021/12/25 13:54:23;;;;;;;3.40;3.07;;;;;;;;;;5011329;28;20453;-48
2021/12/25 13:56:50;;;;;;;3.23;2.67;;;;;;;;;;5034858;28;20474;-50
2021/12/25 13:59:16;;;;;;;4.10;2.50;;;;;;;;;;5023468;28;20526;-49
2021/12/25 14:01:43;;;;;;;4.57;2.73;;;;;;;;;;5021314;28;20731;-50
2021/12/25 14:04:10;;;;;;;5.17;3.20;;;;;;;;;;5023427;28;20474;-49
2021/12/25 14:06:37;;;;;;;5.57;2.60;;;;;;;;;;5042889;28;20446;-49
2021/12/25 14:09:04;;;;;;;5.83;3.33;;;;;;;;;;5016571;28;20784;-49
2021/12/25 14:11:33;;;;;;;3.80;2.93;;;;;;;;;;5048111;28;20443;-50
2021/12/25 14:13:59;;;;;;;3.03;2.57;;;;;;;;;;5023733;28;20435;-50
2021/12/25 14:16:25;;;;;;;3.83;3.30;;;;;;;;;;5047921;28;20437;-49
2021/12/25 14:18:51;;;;;;;3.97;3.20;;;;;;;;;;5040017;28;20431;-49
2021/12/25 14:21:18;;;;;;;5.37;3.83;;;;;;;;;;5045237;28;20506;-50
2021/12/25 14:23:45;;;;;;;4.77;3.03;;;;;;;;;;5023815;28;20434;-50
2021/12/25 14:26:18;;;;;;;5.30;4.80;;;;;;;;;;5044764;28;20783;-50
2021/12/25 14:28:44;;;;;;;5.50;4.53;;;;;;;;;;5023990;28;20434;-50
2021/12/25 14:31:13;;;;;;;6.30;3.90;;;;;;;;;;5049467;28;20943;-50
2021/12/25 14:33:53;;;;;;;5.33;4.10;;;;;;;;;;5023341;28;20577;-51
2021/12/25 14:36:22;;;;;;;6.10;3.97;;;;;;;;;;5032531;28;20427;-50
2021/12/25 14:38:49;;;;;;;6.90;4.40;;;;;;;;;;5018335;28;20884;-50
2021/12/25 14:41:15;;;;;;;5.00;4.10;;;;;;;;;;5035954;28;20521;-49
2021/12/25 14:43:41;;;;;;;7.07;6.00;;;;;;;;;;5005402;28;20810;-48
2021/12/25 14:46:15;;;;;;;5.47;3.97;;;;;;;;;;5011467;28;20850;-50
2021/12/25 14:49:02;;;;;;;7.47;4.03;;;;;;;;;;5039911;28;20446;-50
2021/12/25 14:51:31;;;;;;;4.63;4.13;;;;;;;;;;5015930;28;20441;-49
2021/12/25 14:54:01;;;;;;;8.10;5.53;;;;;;;;;;5028616;28;20500;-50
2021/12/25 14:56:49;;;;;;;6.27;5.10;;;;;;;;;;5037202;28;20431;-50
2021/12/25 14:59:29;;;;;;;6.37;4.70;;;;;;;;;;5023904;28;20454;-48
2021/12/25 15:02:01;;;;;;;6.70;4.80;;;;;;;;;;5017418;28;21468;-50
2021/12/25 15:04:28;;;;;;;6.87;4.90;;;;;;;;;;5019760;28;20481;-49
2021/12/25 15:06:56;;;;;;;14.27;6.47;;;;;;;;;;5038251;28;20415;-49
2021/12/25 15:09:23;;;;;;;9.23;6.87;;;;;;;;;;5044260;28;20458;-49
2021/12/25 15:11:50;;;;;;;6.10;4.97;;;;;;;;;;5023410;28;21363;-49
2021/12/25 15:14:17;;;;;;;9.03;5.00;;;;;;;;;;5037334;28;20460;-49
2021/12/25 15:17:14;;;;;;;8.93;6.60;;;;;;;;;;5012424;28;21223;-50
2021/12/25 15:19:50;;;;;;;13.67;7.90;;;;;;;;;;5031563;28;20458;-49
2021/12/25 15:22:18;;;;;;;9.57;8.03;;;;;;;;;;5010394;28;20480;-49
2021/12/25 15:25:02;;;;;;;9.10;6.50;;;;;;;;;;5033725;28;20788;-50
2021/12/25 15:27:33;;;;;;;10.90;8.30;;;;;;;;;;5015995;28;21410;-48
2021/12/25 15:30:15;;;;;;;9.03;6.90;;;;;;;;;;5039336;28;20476;-51
2021/12/25 15:33:06;;;;;;;10.53;9.20;;;;;;;;;;5025971;28;21040;-49
2021/12/25 15:35:39;;;;;;;13.57;8.57;;;;;;;;;;5032778;28;20427;-53
2021/12/25 15:38:05;;;;;;;9.10;7.23;;;;;;;;;;5013798;28;20454;-49
2021/12/25 15:40:33;;;;;;;12.67;10.87;;;;;;;;;;5035568;28;20500;-50
2021/12/25 15:43:00;;;;;;;13.67;10.57;;;;;;;;;;5024349;28;20522;-49
2021/12/25 15:45:26;;;;;;;12.00;9.10;;;;;;;;;;5037299;28;20674;-47
2021/12/25 15:47:56;;;;;;;12.10;10.17;;;;;;;;;;5030825;28;20549;-51
2021/12/25 15:50:26;;;;;;;16.83;10.33;;;;;;;;;;5036460;28;20441;-48
2021/12/25 15:52:52;;;;;;;15.17;9.37;;;;;;;;;;5030935;28;20427;-50
2021/12/25 15:55:24;;;;;;;13.00;10.10;;;;;;;;;;5045081;28;20477;-49
2021/12/25 15:58:03;;;;;;;19.07;12.23;;;;;;;;;;5025179;28;20431;-51
2021/12/25 16:00:30;;;;;;;15.23;10.30;;;;;;;;;;5037374;28;20977;-48
2021/12/25 16:03:03;;;;;;;15.70;10.90;;;;;;;;;;5032351;28;20450;-49
2021/12/25 16:05:34;;;;;;;18.97;11.93;;;;;;;;;;5024476;28;20952;-47
2021/12/25 16:08:00;;;;;;;17.00;11.37;;;;;;;;;;5022862;28;20804;-49
2021/12/25 16:10:26;;;;;;;18.77;11.40;;;;;;;;;;5041293;28;20542;-50
2021/12/25 16:12:53;;;;;;;18.80;10.10;;;;;;;;;;5018462;28;20591;-49
2021/12/25 16:15:19;;;;;;;26.83;11.17;;;;;;;;;;5044551;28;20526;-49
2021/12/25 16:17:45;;;;;;;17.37;11.97;;;;;;;;;;5032815;28;20450;-49
2021/12/25 16:20:14;;;;;;;17.97;11.03;;;;;;;;;;5051345;28;20434;-48
2021/12/25 16:22:40;;;;;;;16.90;12.00;;;;;;;;;;5037848;28;20458;-48
2021/12/25 16:25:10;;;;;;;23.13;9.13;;;;;;;;;;5046284;28;20434;-49
2021/12/25 16:27:39;;;;;;;18.47;10.27;;;;;;;;;;5044449;28;21256;-50